Main page
METAR-TAF:

METAR-TAF

Airports :

Irkutsk, Russia

International Airport Irkutsk

latitude: 52-16N, longitude: 104-19E, elevation: 513 m

Current weather observation

The report was made 29 minutes ago, at 14:30 UTC
Wind 10 kt from the South
Temperature 1°C
Humidity 69%
Pressure 1025 hPa
Visibility 10 km or more
no clouds below 1500 m and no cumulonimbus

METAR: UIII 291430Z 17005MPS CAVOK 01/M04 Q1025 R12/60D NOSIG RMK QFE726/0968

Time: 22:59 (14:59 UTC)

Forecast

The report was made 59 minutes ago, at 14:00 UTC
Forecast valid from 29 at 15 UTC to 30 at 15 UTC
Wind 8 kt from the South/Southeast
Visibility 10 km or more
Temporary
from 30 at 00 UTC to 30 at 12 UTC
Wind 17 kt from the South/Southeast

TAF: UIII 291400Z 2915/3015 16004MPS 9999 NSC TEMPO 3000/3012 16009MPS

Weather observations and forecasts of more than 4000 airports (METAR and TAF reports).

The available stations are represented by yellow and red dots on the map.

Hover mouse over dot to see the name of the station.

Then click to see weather observations and forecasts.

To change the map : click on the green buttons with a black cross to zoom in, on the green button with a dash to zoom out, or on the green arrows for adjacent maps.


METAR-TAF: